sensor_id;sensor_type;location;lat;lon;timestamp;pressure;altitude;pressure_sealevel;temperature;humidity
43267;BME280;67779;54.074;18.770;2023-02-16T00:01:46;101712.22;;;2.25;97.99
43267;BME280;67779;54.074;18.770;2023-02-16T00:08:29;101704.41;;;2.25;97.93
43267;BME280;67779;54.074;18.770;2023-02-16T00:15:17;101694.81;;;2.23;97.98
43267;BME280;67779;54.074;18.770;2023-02-16T00:22:01;101681.78;;;2.23;97.92
43267;BME280;67779;54.074;18.770;2023-02-16T00:28:44;101660.00;;;2.20;97.94
43267;BME280;67779;54.074;18.770;2023-02-16T00:35:26;101653.00;;;2.19;97.83
43267;BME280;67779;54.074;18.770;2023-02-16T00:42:23;101653.84;;;2.16;98.02
43267;BME280;67779;54.074;18.770;2023-02-16T00:49:15;101652.84;;;2.11;98.08
43267;BME280;67779;54.074;18.770;2023-02-16T00:55:57;101638.91;;;2.09;98.48
43267;BME280;67779;54.074;18.770;2023-02-16T01:02:42;101637.94;;;2.06;98.73
43267;BME280;67779;54.074;18.770;2023-02-16T01:09:25;101638.69;;;2.01;98.62
43267;BME280;67779;54.074;18.770;2023-02-16T01:16:40;101634.28;;;1.99;98.98
43267;BME280;67779;54.074;18.770;2023-02-16T01:23:23;101629.78;;;1.93;99.03
43267;BME280;67779;54.074;18.770;2023-02-16T01:30:12;101621.91;;;1.90;99.14
43267;BME280;67779;54.074;18.770;2023-02-16T01:36:57;101618.38;;;1.88;99.07
43267;BME280;67779;54.074;18.770;2023-02-16T01:44:01;101597.53;;;1.87;99.62
43267;BME280;67779;54.074;18.770;2023-02-16T01:57:47;101586.19;;;1.83;99.45
43267;BME280;67779;54.074;18.770;2023-02-16T02:04:43;101593.97;;;1.83;99.39
43267;BME280;67779;54.074;18.770;2023-02-16T02:11:59;101583.50;;;1.82;99.50
43267;BME280;67779;54.074;18.770;2023-02-16T02:18:44;101569.56;;;1.79;99.35
43267;BME280;67779;54.074;18.770;2023-02-16T02:40:37;101528.72;;;1.75;100.00
43267;BME280;67779;54.074;18.770;2023-02-16T02:47:37;101526.94;;;1.73;99.96
43267;BME280;67779;54.074;18.770;2023-02-16T02:54:31;101513.88;;;1.71;100.00
43267;BME280;67779;54.074;18.770;2023-02-16T03:01:35;101498.16;;;1.67;100.00
43267;BME280;67779;54.074;18.770;2023-02-16T03:08:23;101488.47;;;1.61;100.00
43267;BME280;67779;54.074;18.770;2023-02-16T03:15:06;101476.28;;;1.59;100.00
43267;BME280;67779;54.074;18.770;2023-02-16T03:21:50;101477.00;;;1.53;100.00
43267;BME280;67779;54.074;18.770;2023-02-16T03:28:52;101482.13;;;1.50;100.00
43267;BME280;67779;54.074;18.770;2023-02-16T03:35:53;101481.94;;;1.44;100.00
43267;BME280;67779;54.074;18.770;2023-02-16T03:42:36;101482.72;;;1.40;100.00
43267;BME280;67779;54.074;18.770;2023-02-16T03:49:20;101480.84;;;1.36;100.00
43267;BME280;67779;54.074;18.770;2023-02-16T03:56:02;101464.31;;;1.32;100.00
43267;BME280;67779;54.074;18.770;2023-02-16T04:02:45;101460.78;;;1.30;100.00
43267;BME280;67779;54.074;18.770;2023-02-16T04:09:27;101458.97;;;1.27;100.00
43267;BME280;67779;54.074;18.770;2023-02-16T04:16:09;101449.41;;;1.25;100.00
43267;BME280;67779;54.074;18.770;2023-02-16T04:22:52;101444.00;;;1.17;100.00
43267;BME280;67779;54.074;18.770;2023-02-16T04:29:34;101445.59;;;1.12;100.00
43267;BME280;67779;54.074;18.770;2023-02-16T04:36:17;101447.97;;;1.04;100.00
43267;BME280;67779;54.074;18.770;2023-02-16T04:42:59;101438.34;;;1.00;100.00
43267;BME280;67779;54.074;18.770;2023-02-16T04:49:41;101439.16;;;0.99;100.00
43267;BME280;67779;54.074;18.770;2023-02-16T04:56:24;101440.94;;;1.00;100.00
43267;BME280;67779;54.074;18.770;2023-02-16T05:03:06;101424.56;;;1.03;100.00
43267;BME280;67779;54.074;18.770;2023-02-16T05:09:49;101421.06;;;1.02;100.00
43267;BME280;67779;54.074;18.770;2023-02-16T05:16:32;101421.09;;;1.04;100.00
43267;BME280;67779;54.074;18.770;2023-02-16T05:23:14;101419.44;;;1.06;100.00
43267;BME280;67779;54.074;18.770;2023-02-16T05:29:57;101414.31;;;1.09;100.00
43267;BME280;67779;54.074;18.770;2023-02-16T05:36:40;101403.06;;;1.10;100.00
43267;BME280;67779;54.074;18.770;2023-02-16T05:43:23;101403.00;;;1.07;100.00
43267;BME280;67779;54.074;18.770;2023-02-16T05:50:06;101408.97;;;1.03;100.00
43267;BME280;67779;54.074;18.770;2023-02-16T05:56:50;101419.22;;;0.98;100.00
43267;BME280;67779;54.074;18.770;2023-02-16T06:03:33;101415.63;;;0.93;100.00
43267;BME280;67779;54.074;18.770;2023-02-16T06:10:17;101418.84;;;0.84;100.00
43267;BME280;67779;54.074;18.770;2023-02-16T06:17:00;101414.22;;;0.74;100.00
43267;BME280;67779;54.074;18.770;2023-02-16T06:23:42;101416.59;;;0.66;100.00
43267;BME280;67779;54.074;18.770;2023-02-16T06:30:25;101406.03;;;0.60;100.00
43267;BME280;67779;54.074;18.770;2023-02-16T06:37:07;101400.75;;;0.57;100.00
43267;BME280;67779;54.074;18.770;2023-02-16T06:43:49;101392.09;;;0.57;100.00
43267;BME280;67779;54.074;18.770;2023-02-16T06:50:32;101393.13;;;0.62;100.00
43267;BME280;67779;54.074;18.770;2023-02-16T06:57:14;101389.66;;;0.61;100.00
43267;BME280;67779;54.074;18.770;2023-02-16T07:03:57;101396.66;;;0.65;100.00
43267;BME280;67779;54.074;18.770;2023-02-16T07:10:45;101382.72;;;0.62;100.00
43267;BME280;67779;54.074;18.770;2023-02-16T07:17:31;101379.19;;;0.60;100.00
43267;BME280;67779;54.074;18.770;2023-02-16T07:24:14;101386.97;;;0.58;100.00
43267;BME280;67779;54.074;18.770;2023-02-16T07:30:56;101380.00;;;0.57;100.00
43267;BME280;67779;54.074;18.770;2023-02-16T07:37:39;101364.38;;;0.56;100.00
43267;BME280;67779;54.074;18.770;2023-02-16T07:44:21;101367.88;;;0.58;100.00
43267;BME280;67779;54.074;18.770;2023-02-16T07:51:04;101372.25;;;0.59;100.00
43267;BME280;67779;54.074;18.770;2023-02-16T07:57:47;101374.78;;;0.57;100.00
43267;BME280;67779;54.074;18.770;2023-02-16T08:04:30;101370.38;;;0.53;100.00
43267;BME280;67779;54.074;18.770;2023-02-16T08:11:22;101367.69;;;0.50;100.00
43267;BME280;67779;54.074;18.770;2023-02-16T08:18:04;101372.09;;;0.53;100.00
43267;BME280;67779;54.074;18.770;2023-02-16T08:24:47;101377.38;;;0.56;100.00
43267;BME280;67779;54.074;18.770;2023-02-16T08:31:33;101372.19;;;0.57;100.00
43267;BME280;67779;54.074;18.770;2023-02-16T08:38:16;101381.78;;;0.58;100.00
43267;BME280;67779;54.074;18.770;2023-02-16T08:45:01;101363.69;;;0.61;100.00
43267;BME280;67779;54.074;18.770;2023-02-16T08:51:47;101383.69;;;0.65;100.00
43267;BME280;67779;54.074;18.770;2023-02-16T08:58:30;101366.47;;;0.69;100.00
43267;BME280;67779;54.074;18.770;2023-02-16T09:05:12;101369.25;;;0.75;100.00
43267;BME280;67779;54.074;18.770;2023-02-16T09:11:55;101358.16;;;0.81;100.00
43267;BME280;67779;54.074;18.770;2023-02-16T09:18:39;101367.91;;;0.91;100.00
43267;BME280;67779;54.074;18.770;2023-02-16T09:25:22;101350.94;;;1.04;100.00
43267;BME280;67779;54.074;18.770;2023-02-16T09:32:05;101343.56;;;1.21;100.00
43267;BME280;67779;54.074;18.770;2023-02-16T09:38:52;101344.06;;;1.41;100.00
43267;BME280;67779;54.074;18.770;2023-02-16T09:45:46;101342.91;;;1.64;100.00
43267;BME280;67779;54.074;18.770;2023-02-16T09:52:37;101338.28;;;1.90;100.00
43267;BME280;67779;54.074;18.770;2023-02-16T10:00:00;101337.09;;;2.15;98.93
43267;BME280;67779;54.074;18.770;2023-02-16T10:13:50;101331.84;;;2.56;94.65
43267;BME280;67779;54.074;18.770;2023-02-16T10:20:45;101329.59;;;2.75;93.23
43267;BME280;67779;54.074;18.770;2023-02-16T10:27:40;101316.88;;;2.92;91.25
43267;BME280;67779;54.074;18.770;2023-02-16T10:41:35;101314.06;;;3.32;90.83
43267;BME280;67779;54.074;18.770;2023-02-16T10:48:22;101324.00;;;3.55;89.24
43267;BME280;67779;54.074;18.770;2023-02-16T10:55:07;101319.00;;;3.69;87.43
43267;BME280;67779;54.074;18.770;2023-02-16T11:01:54;101304.38;;;3.82;86.93
43267;BME280;67779;54.074;18.770;2023-02-16T11:08:51;101305.53;;;4.03;86.37
43267;BME280;67779;54.074;18.770;2023-02-16T11:15:37;101302.31;;;4.21;84.99
43267;BME280;67779;54.074;18.770;2023-02-16T11:22:34;101290.28;;;4.36;84.08
43267;BME280;67779;54.074;18.770;2023-02-16T11:29:19;101288.69;;;4.50;82.97
43267;BME280;67779;54.074;18.770;2023-02-16T11:36:01;101286.22;;;4.65;83.19
43267;BME280;67779;54.074;18.770;2023-02-16T11:42:55;101291.66;;;4.85;82.49
43267;BME280;67779;54.074;18.770;2023-02-16T11:49:40;101281.38;;;5.05;82.20
43267;BME280;67779;54.074;18.770;2023-02-16T11:56:27;101278.00;;;5.20;81.01
43267;BME280;67779;54.074;18.770;2023-02-16T12:03:25;101279.88;;;5.35;81.38
43267;BME280;67779;54.074;18.770;2023-02-16T12:17:34;101243.34;;;5.53;80.14
43267;BME280;67779;54.074;18.770;2023-02-16T12:39:37;101211.41;;;6.36;75.84
43267;BME280;67779;54.074;18.770;2023-02-16T12:46:41;101206.19;;;6.50;75.86
43267;BME280;67779;54.074;18.770;2023-02-16T12:53:37;101204.50;;;6.79;75.25
43267;BME280;67779;54.074;18.770;2023-02-16T13:07:34;101216.72;;;7.05;71.42
43267;BME280;67779;54.074;18.770;2023-02-16T13:14:32;101222.84;;;7.10;71.72
43267;BME280;67779;54.074;18.770;2023-02-16T13:29:38;101212.31;;;7.11;70.75
43267;BME280;67779;54.074;18.770;2023-02-16T13:50:29;101212.34;;;6.93;71.71
43267;BME280;67779;54.074;18.770;2023-02-16T13:57:14;101218.44;;;6.81;72.17
43267;BME280;67779;54.074;18.770;2023-02-16T14:11:08;101208.84;;;6.73;73.62
43267;BME280;67779;54.074;18.770;2023-02-16T14:17:51;101211.47;;;6.77;73.78
43267;BME280;67779;54.074;18.770;2023-02-16T14:24:37;101213.22;;;6.75;73.77
43267;BME280;67779;54.074;18.770;2023-02-16T14:31:19;101207.97;;;6.72;73.79
43267;BME280;67779;54.074;18.770;2023-02-16T14:38:16;101205.34;;;6.64;74.17
43267;BME280;67779;54.074;18.770;2023-02-16T14:45:43;101188.75;;;6.55;74.65
43267;BME280;67779;54.074;18.770;2023-02-16T14:59:33;101178.22;;;6.35;75.84
43267;BME280;67779;54.074;18.770;2023-02-16T15:06:33;101173.84;;;6.29;76.26
43267;BME280;67779;54.074;18.770;2023-02-16T15:13:29;101168.59;;;6.23;76.74
43267;BME280;67779;54.074;18.770;2023-02-16T15:20:37;101174.69;;;6.16;77.12
43267;BME280;67779;54.074;18.770;2023-02-16T15:31:01;101172.91;;;6.02;78.14
43267;BME280;67779;54.074;18.770;2023-02-16T15:37:46;101178.06;;;5.89;78.69
43267;BME280;67779;54.074;18.770;2023-02-16T15:44:32;101164.94;;;5.75;79.48
43267;BME280;67779;54.074;18.770;2023-02-16T15:51:28;101164.91;;;5.63;80.46
43267;BME280;67779;54.074;18.770;2023-02-16T15:58:13;101164.81;;;5.50;80.79
43267;BME280;67779;54.074;18.770;2023-02-16T16:04:59;101159.53;;;5.40;81.39
43267;BME280;67779;54.074;18.770;2023-02-16T16:11:42;101168.22;;;5.31;82.07
43267;BME280;67779;54.074;18.770;2023-02-16T16:18:41;101151.59;;;5.23;82.47
43267;BME280;67779;54.074;18.770;2023-02-16T16:32:26;101154.97;;;5.06;83.16
43267;BME280;67779;54.074;18.770;2023-02-16T16:46:28;101144.44;;;4.96;84.85
43267;BME280;67779;54.074;18.770;2023-02-16T17:00:13;101149.63;;;4.86;86.15
43267;BME280;67779;54.074;18.770;2023-02-16T17:06:55;101145.22;;;4.81;86.74
43267;BME280;67779;54.074;18.770;2023-02-16T17:13:37;101147.81;;;4.78;87.48
43267;BME280;67779;54.074;18.770;2023-02-16T17:20:20;101151.28;;;4.75;88.01
43267;BME280;67779;54.074;18.770;2023-02-16T17:27:02;101150.38;;;4.73;88.01
43267;BME280;67779;54.074;18.770;2023-02-16T17:33:44;101146.00;;;4.70;88.34
43267;BME280;67779;54.074;18.770;2023-02-16T17:40:27;101149.50;;;4.69;88.65
43267;BME280;67779;54.074;18.770;2023-02-16T17:47:13;101153.84;;;4.66;88.71
43267;BME280;67779;54.074;18.770;2023-02-16T17:53:56;101151.16;;;4.60;89.24
43267;BME280;67779;54.074;18.770;2023-02-16T18:00:40;101140.66;;;4.57;89.62
43267;BME280;67779;54.074;18.770;2023-02-16T18:07:22;101136.28;;;4.54;90.16
43267;BME280;67779;54.074;18.770;2023-02-16T18:14:08;101123.22;;;4.51;90.91
43267;BME280;67779;54.074;18.770;2023-02-16T18:20:51;101122.34;;;4.54;91.55
43267;BME280;67779;54.074;18.770;2023-02-16T18:27:33;101116.28;;;4.55;92.10
43267;BME280;67779;54.074;18.770;2023-02-16T18:34:16;101112.81;;;4.57;92.54
43267;BME280;67779;54.074;18.770;2023-02-16T18:40:58;101117.16;;;4.60;92.89
43267;BME280;67779;54.074;18.770;2023-02-16T18:47:41;101121.53;;;4.59;93.07
43267;BME280;67779;54.074;18.770;2023-02-16T18:54:25;101117.19;;;4.61;93.40
43267;BME280;67779;54.074;18.770;2023-02-16T19:01:22;101107.63;;;4.62;93.57
43267;BME280;67779;54.074;18.770;2023-02-16T19:08:05;101104.13;;;4.61;93.73
43267;BME280;67779;54.074;18.770;2023-02-16T19:14:48;101118.06;;;4.62;93.72
43267;BME280;67779;54.074;18.770;2023-02-16T19:21:30;101113.72;;;4.64;93.83
43267;BME280;67779;54.074;18.770;2023-02-16T19:28:12;101110.25;;;4.63;94.05
43267;BME280;67779;54.074;18.770;2023-02-16T19:34:55;101111.13;;;4.65;93.80
43267;BME280;67779;54.074;18.770;2023-02-16T19:41:40;101114.63;;;4.66;93.62
43267;BME280;67779;54.074;18.770;2023-02-16T19:48:22;101111.16;;;4.68;93.41
43267;BME280;67779;54.074;18.770;2023-02-16T19:55:05;101107.66;;;4.71;92.95
43267;BME280;67779;54.074;18.770;2023-02-16T20:01:47;101102.50;;;4.74;92.62
43267;BME280;67779;54.074;18.770;2023-02-16T20:08:30;101106.88;;;4.77;92.09
43267;BME280;67779;54.074;18.770;2023-02-16T20:15:13;101103.38;;;4.78;91.85
43267;BME280;67779;54.074;18.770;2023-02-16T20:21:56;101099.03;;;4.78;91.33
43267;BME280;67779;54.074;18.770;2023-02-16T20:28:39;101095.53;;;4.79;91.03
43267;BME280;67779;54.074;18.770;2023-02-16T20:35:22;101092.06;;;4.82;90.86
43267;BME280;67779;54.074;18.770;2023-02-16T20:42:04;101101.66;;;4.81;90.82
43267;BME280;67779;54.074;18.770;2023-02-16T20:48:47;101099.03;;;4.81;90.62
43267;BME280;67779;54.074;18.770;2023-02-16T20:55:31;101102.53;;;4.80;90.61
43267;BME280;67779;54.074;18.770;2023-02-16T21:02:13;101092.97;;;4.82;90.48
43267;BME280;67779;54.074;18.770;2023-02-16T21:08:56;101092.97;;;4.82;90.45
43267;BME280;67779;54.074;18.770;2023-02-16T21:15:38;101102.53;;;4.82;90.40
43267;BME280;67779;54.074;18.770;2023-02-16T21:22:21;101101.66;;;4.77;90.16
43267;BME280;67779;54.074;18.770;2023-02-16T21:29:05;101099.84;;;4.73;90.31
43267;BME280;67779;54.074;18.770;2023-02-16T21:35:47;101091.13;;;4.69;90.42
43267;BME280;67779;54.074;18.770;2023-02-16T21:42:33;101086.75;;;4.66;90.75
43267;BME280;67779;54.074;18.770;2023-02-16T21:49:18;101086.72;;;4.65;90.81
43267;BME280;67779;54.074;18.770;2023-02-16T21:56:06;101088.47;;;4.64;91.00
43267;BME280;67779;54.074;18.770;2023-02-16T22:02:58;101075.41;;;4.64;91.26
43267;BME280;67779;54.074;18.770;2023-02-16T22:09:40;101071.91;;;4.64;91.38
43267;BME280;67779;54.074;18.770;2023-02-16T22:16:25;101064.09;;;4.64;91.65
43267;BME280;67779;54.074;18.770;2023-02-16T22:23:07;101058.84;;;4.64;91.97
43267;BME280;67779;54.074;18.770;2023-02-16T22:29:50;101045.75;;;4.62;92.37
43267;BME280;67779;54.074;18.770;2023-02-16T22:36:34;101043.16;;;4.61;92.42
43267;BME280;67779;54.074;18.770;2023-02-16T22:43:17;101034.44;;;4.57;92.73
43267;BME280;67779;54.074;18.770;2023-02-16T22:49:59;101041.38;;;4.55;93.04
43267;BME280;67779;54.074;18.770;2023-02-16T22:56:42;101030.06;;;4.55;93.49
43267;BME280;67779;54.074;18.770;2023-02-16T23:03:25;101025.69;;;4.57;93.65
43267;BME280;67779;54.074;18.770;2023-02-16T23:10:08;101027.47;;;4.59;94.02
43267;BME280;67779;54.074;18.770;2023-02-16T23:16:52;101031.84;;;4.60;94.24
43267;BME280;67779;54.074;18.770;2023-02-16T23:23:37;101023.13;;;4.61;94.61
43267;BME280;67779;54.074;18.770;2023-02-16T23:30:20;101023.13;;;4.61;94.50
43267;BME280;67779;54.074;18.770;2023-02-16T23:37:02;101028.38;;;4.63;94.81
43267;BME280;67779;54.074;18.770;2023-02-16T23:43:45;101022.25;;;4.61;94.68
43267;BME280;67779;54.074;18.770;2023-02-16T23:50:27;101004.81;;;4.60;94.95
43267;BME280;67779;54.074;18.770;2023-02-16T23:57:10;101011.78;;;4.59;95.20
